Huvudsida
METAR-TAF:

METAR-TAF

Flygplatser :

Vientiane, Laos

Wattay International Airport

latitud: 17-57N, longitud: 102-34E, höjd: 171 m

Aktuellt väderrapport

Denna rapport gjordes för 36 minuter sedan, klockan 00:30 UTC
Vind 4 kt från ost
Temperatur 28°C
Fuktighet 74%
Tryck 1009 hPa
Sikt: 5000 m
Spridda moln på en höjd av 5000 ft
fuktdis

METAR: VLVT 250030Z 09004KT 5000 BR SCT050 28/23 Q1009 NOSIG

Tid: 08:06 (01:06 UTC)

Väderprognos

Denna rapport gjordes för 2 timmar och 6 minuter sedan, klockan 23:00 UTC
Prognos gäller från 25 kl. 00 UTC till 25 kl. 24 UTC
Vind 4 kt från ost/nordost
Sikt: 5000 m
Få moln på en höjd av 2000 ft
Spridda moln på en höjd av 5000 ft
Spridda moln på en höjd av 10000 ft
fuktdis
Temporärt
från 25 kl. 06 UTC till 25 kl. 11 UTC
Sikt: 8000 m
Spridda moln på en höjd av 2000 ft
Spridda moln på en höjd av 5000 ft

TAF: VLVT 242300Z 2500/2524 06004KT 5000 BR FEW020 SCT050 SCT100 TEMPO 2506/2511 8000 SCT020 SCT050

Aktuella väderrapporter och prognoser från 4000 flygplatser (METAR- och TAF-rapporter).

De tillgängliga stationerna syns som gula och röda prickar på kartan.

För musen över prickarna för att se namnen på stationerna.

Klicka sedan för att få väderrapporter och prognoser.

För att ändra kartan: Klicka på de gröna knapparna med ett svart kors på för att zooma in; den gröna knappen med ett streck på för att zooma ut; eller på de gröna pilarna för angränsande kartor.


METAR-TAF: